createdAt,value
2019-02-28T00:03:59.077Z,18.90
2019-02-28T00:08:06.424Z,19.13
2019-02-28T00:12:14.299Z,20.23
2019-02-28T00:16:21.429Z,20.07
2019-02-28T00:20:29.187Z,20.27
2019-02-28T00:24:36.960Z,19.37
2019-02-28T00:28:43.845Z,25.13
2019-02-28T00:32:50.793Z,20.07
2019-02-28T00:36:57.616Z,21.57
2019-02-28T00:41:05.580Z,21.27
2019-02-28T00:45:12.803Z,17.67
2019-02-28T00:49:19.652Z,23.03
2019-02-28T00:53:26.462Z,21.53
2019-02-28T00:57:35.388Z,20.20
2019-02-28T01:01:45.884Z,21.90
2019-02-28T01:05:52.032Z,20.10
2019-02-28T01:10:01.360Z,21.00
2019-02-28T01:14:07.533Z,20.50
2019-02-28T01:18:14.489Z,17.17
2019-02-28T01:22:21.445Z,18.00
2019-02-28T01:26:30.457Z,18.80
2019-02-28T01:30:37.093Z,20.43
2019-02-28T01:34:45.511Z,17.97
2019-02-28T01:38:57.573Z,18.70
2019-02-28T01:43:00.908Z,21.20
2019-02-28T01:47:07.901Z,20.17
2019-02-28T01:51:14.814Z,16.47
2019-02-28T01:55:21.644Z,21.23
2019-02-28T01:59:28.497Z,21.97
2019-02-28T02:03:36.342Z,20.33
2019-02-28T02:07:43.325Z,22.90
2019-02-28T02:11:50.222Z,20.77
2019-02-28T02:15:57.078Z,23.17
2019-02-28T02:20:04.034Z,20.73
2019-02-28T02:24:10.947Z,23.67
2019-02-28T02:28:17.917Z,21.77
2019-02-28T02:32:24.738Z,20.03
2019-02-28T02:36:31.574Z,21.70
2019-02-28T02:40:38.404Z,19.43
2019-02-28T02:44:45.235Z,20.93
2019-02-28T02:48:52.086Z,21.17
2019-02-28T02:53:05.039Z,18.13
2019-02-28T02:57:07.547Z,20.37
2019-02-28T03:01:14.505Z,22.80
2019-02-28T03:05:21.483Z,22.50
2019-02-28T03:09:28.383Z,22.47
2019-02-28T03:13:42.120Z,20.60
2019-02-28T03:17:55.726Z,24.73
2019-02-28T03:22:02.618Z,23.00
2019-02-28T03:26:09.504Z,21.80
2019-02-28T03:30:27.846Z,19.30
2019-02-28T03:34:25.997Z,20.43
2019-02-28T03:38:32.862Z,21.10
2019-02-28T03:42:39.841Z,20.30
2019-02-28T03:46:47.899Z,21.90
2019-02-28T03:50:55.553Z,21.17
2019-02-28T03:55:04.760Z,16.77
2019-02-28T03:59:18.233Z,22.80
2019-02-28T04:03:20.528Z,25.80
2019-02-28T04:07:27.491Z,22.30
2019-02-28T04:11:34.377Z,27.87
2019-02-28T04:15:49.739Z,24.87
2019-02-28T04:19:50.030Z,22.83
2019-02-28T04:23:56.852Z,25.40
2019-02-28T04:28:03.778Z,20.97
2019-02-28T04:32:10.728Z,20.93
2019-02-28T04:36:17.559Z,20.87
2019-02-28T04:40:26.992Z,21.13
2019-02-28T04:44:33.063Z,18.30
2019-02-28T04:48:39.985Z,22.67
2019-02-28T04:52:48.175Z,17.27
2019-02-28T04:56:55.384Z,19.13
2019-02-28T05:01:02.268Z,21.47
2019-02-28T05:05:12.657Z,20.00
2019-02-28T05:09:18.297Z,21.07
2019-02-28T05:13:25.161Z,19.47
2019-02-28T05:17:32.041Z,22.10
2019-02-28T05:21:38.890Z,18.60
2019-02-28T05:25:45.776Z,21.47
2019-02-28T05:29:52.793Z,20.07
2019-02-28T05:33:59.631Z,24.17
2019-02-28T05:38:06.481Z,21.30
2019-02-28T05:42:13.355Z,20.33
2019-02-28T05:46:23.502Z,20.63
2019-02-28T05:50:29.328Z,20.63
2019-02-28T05:54:36.338Z,18.93
2019-02-28T05:58:43.354Z,20.40
2019-02-28T06:02:50.452Z,23.50
2019-02-28T06:06:57.440Z,26.50
2019-02-28T06:11:04.334Z,22.40
2019-02-28T06:15:11.975Z,20.47
2019-02-28T06:19:20.328Z,23.07
2019-02-28T06:23:28.508Z,22.53
2019-02-28T06:27:41.710Z,22.13
2019-02-28T06:31:49.843Z,22.57
2019-02-28T06:35:57.360Z,23.43
2019-02-28T06:40:09.012Z,20.90
2019-02-28T06:44:16.222Z,21.30
2019-02-28T06:48:25.929Z,23.37
2019-02-28T06:52:31.840Z,22.87
2019-02-28T06:56:38.736Z,22.60
2019-02-28T07:00:47.418Z,22.40
2019-02-28T07:04:54.256Z,83.43
2019-02-28T07:09:02.494Z,20.97
2019-02-28T07:13:11.929Z,20.57
2019-02-28T07:17:19.011Z,28.87
2019-02-28T07:21:26.121Z,22.80
2019-02-28T07:25:33.189Z,22.23
2019-02-28T07:29:42.734Z,26.83
2019-02-28T07:33:48.918Z,22.27
2019-02-28T07:37:55.800Z,20.97
2019-02-28T07:42:03.053Z,26.43
2019-02-28T07:46:10.072Z,23.17
2019-02-28T07:50:17.357Z,28.43
2019-02-28T07:54:24.254Z,26.20
2019-02-28T07:58:33.492Z,24.70
2019-02-28T08:02:40.021Z,22.33
2019-02-28T08:06:46.959Z,23.23
2019-02-28T08:10:53.866Z,25.87
2019-02-28T08:15:00.701Z,29.13
2019-02-28T08:19:07.878Z,24.20
2019-02-28T08:23:15.710Z,24.77
2019-02-28T08:27:25.419Z,19.60
2019-02-28T08:31:32.000Z,27.43
2019-02-28T08:35:39.901Z,25.60
2019-02-28T08:39:47.069Z,26.03
2019-02-28T08:43:55.007Z,28.37
2019-02-28T08:48:01.944Z,25.77
2019-02-28T08:52:08.900Z,27.47
2019-02-28T08:56:15.781Z,23.13
2019-02-28T09:00:22.928Z,23.43
2019-02-28T09:04:41.031Z,24.67
2019-02-28T09:08:42.770Z,27.03
2019-02-28T09:12:50.168Z,26.23
2019-02-28T09:17:00.070Z,26.93
2019-02-28T09:21:07.055Z,28.00
2019-02-28T09:25:21.421Z,27.43
2019-02-28T09:29:24.668Z,28.23
2019-02-28T09:33:31.613Z,29.17
2019-02-28T09:37:38.793Z,29.83
2019-02-28T09:41:46.261Z,34.00
2019-02-28T09:45:56.839Z,31.23
2019-02-28T09:50:03.978Z,31.83
2019-02-28T09:54:11.136Z,32.97
2019-02-28T09:58:18.504Z,34.23
2019-02-28T10:02:25.540Z,36.77
2019-02-28T10:06:33.326Z,33.30
2019-02-28T10:10:40.547Z,32.93
2019-02-28T10:14:48.613Z,35.90
2019-02-28T10:18:55.699Z,35.27
2019-02-28T10:23:02.602Z,33.50
2019-02-28T10:27:09.694Z,35.07
2019-02-28T10:31:16.796Z,35.00
2019-02-28T10:35:23.766Z,35.37
2019-02-28T10:39:30.865Z,38.10
2019-02-28T10:43:38.031Z,34.87
2019-02-28T10:47:45.221Z,37.10
2019-02-28T10:51:52.307Z,36.93
2019-02-28T10:55:59.410Z,37.87
2019-02-28T11:00:11.824Z,42.27
2019-02-28T11:04:18.797Z,40.00
2019-02-28T11:08:27.438Z,36.63
2019-02-28T11:12:34.458Z,37.13
2019-02-28T11:16:41.654Z,42.07
2019-02-28T11:20:48.616Z,37.63
2019-02-28T11:25:00.481Z,38.93
2019-02-28T11:29:04.443Z,38.30
2019-02-28T11:33:11.728Z,39.57
2019-02-28T11:37:18.677Z,40.50
2019-02-28T11:41:25.681Z,37.33
2019-02-28T11:45:32.893Z,44.13
2019-02-28T11:49:39.892Z,38.43
2019-02-28T11:53:46.962Z,35.80
2019-02-28T11:57:53.947Z,41.13
2019-02-28T12:02:00.798Z,40.83
2019-02-28T12:06:07.676Z,43.07
2019-02-28T12:10:14.714Z,41.43
2019-02-28T12:14:22.755Z,38.73
2019-02-28T12:18:29.667Z,37.67
2019-02-28T12:22:36.495Z,39.20
2019-02-28T12:26:43.622Z,37.93
2019-02-28T12:30:50.577Z,36.33
2019-02-28T12:35:01.479Z,37.17
2019-02-28T12:39:08.588Z,38.77
2019-02-28T12:43:15.834Z,35.10
2019-02-28T12:47:23.593Z,34.90
2019-02-28T12:51:30.505Z,33.53
2019-02-28T12:55:39.040Z,34.40
2019-02-28T12:59:47.043Z,29.90
2019-02-28T13:04:00.193Z,31.20
2019-02-28T13:08:05.779Z,31.77
2019-02-28T13:12:12.106Z,33.03
2019-02-28T13:16:20.793Z,31.73
2019-02-28T13:20:33.528Z,31.80
2019-02-28T13:24:38.233Z,31.37
2019-02-28T13:28:45.250Z,29.37
2019-02-28T13:32:52.205Z,29.87
2019-02-28T13:37:02.831Z,25.87
2019-02-28T13:41:08.090Z,27.20
2019-02-28T13:45:22.270Z,27.37
2019-02-28T13:49:24.724Z,27.97
2019-02-28T13:53:31.955Z,31.77
2019-02-28T13:57:40.691Z,28.70
2019-02-28T14:01:52.141Z,24.53
2019-02-28T14:05:57.530Z,23.30
2019-02-28T14:10:05.233Z,27.03
2019-02-28T14:14:12.449Z,24.73
2019-02-28T14:18:19.511Z,27.03
2019-02-28T14:22:26.564Z,24.50
2019-02-28T14:26:42.399Z,26.23
2019-02-28T14:30:42.435Z,26.97
2019-02-28T14:34:49.325Z,23.10
2019-02-28T14:38:58.735Z,29.97
2019-02-28T14:43:19.843Z,24.57
2019-02-28T14:47:28.510Z,24.80
2019-02-28T14:51:36.365Z,26.20
2019-02-28T14:56:04.390Z,22.00
2019-02-28T15:00:25.057Z,23.50
2019-02-28T15:04:32.004Z,23.47
2019-02-28T15:08:39.260Z,27.70
2019-02-28T15:12:46.429Z,27.40
2019-02-28T15:16:53.396Z,22.77
2019-02-28T15:21:00.441Z,29.47
2019-02-28T15:25:08.243Z,25.23
2019-02-28T15:29:15.340Z,27.17
2019-02-28T15:33:22.310Z,26.83
2019-02-28T15:37:30.451Z,35.50
2019-02-28T15:41:38.085Z,34.63
2019-02-28T15:45:45.268Z,36.13
2019-02-28T15:49:52.920Z,41.23
2019-02-28T15:53:59.918Z,36.70
2019-02-28T15:58:07.261Z,35.93
2019-02-28T16:02:15.615Z,31.57
2019-02-28T16:06:25.086Z,38.67
2019-02-28T16:10:32.959Z,35.80
2019-02-28T16:14:40.178Z,37.33
2019-02-28T16:18:47.995Z,38.37
2019-02-28T16:22:55.361Z,37.70
2019-02-28T16:27:02.408Z,37.37
2019-02-28T16:31:09.405Z,37.23
2019-02-28T16:35:16.256Z,42.17
2019-02-28T16:39:24.854Z,38.33
2019-02-28T16:43:33.909Z,36.67
2019-02-28T16:47:40.532Z,37.80
2019-02-28T16:51:47.387Z,38.83
2019-02-28T16:55:54.319Z,42.87
2019-02-28T17:00:04.029Z,52.93
2019-02-28T17:04:13.528Z,38.90
2019-02-28T17:08:20.113Z,54.57
2019-02-28T17:12:54.295Z,54.07
2019-02-28T17:17:08.737Z,52.67
2019-02-28T17:21:17.923Z,54.77
2019-02-28T17:25:23.703Z,46.67
2019-02-28T17:29:36.206Z,40.33
2019-02-28T17:33:46.800Z,43.43
2019-02-28T17:37:52.468Z,27.20
2019-02-28T17:42:08.096Z,19.33
2019-02-28T17:46:10.325Z,18.60
2019-02-28T17:50:59.141Z,13.43
2019-02-28T17:55:52.647Z,13.40
2019-02-28T18:01:28.661Z,11.80
2019-02-28T18:06:26.924Z,9.20
2019-02-28T18:11:24.711Z,10.63
2019-02-28T18:16:30.460Z,8.67
2019-02-28T18:21:21.810Z,8.17
2019-02-28T18:26:38.691Z,6.70
2019-02-28T18:31:15.086Z,7.23
2019-02-28T18:35:22.062Z,32.20
2019-02-28T18:39:29.003Z,15.40
2019-02-28T18:43:36.306Z,12.60
2019-02-28T18:47:43.359Z,16.50
2019-02-28T18:51:51.449Z,14.70
2019-02-28T18:55:58.558Z,14.17
2019-02-28T19:00:08.543Z,13.17
2019-02-28T19:04:15.237Z,14.40
2019-02-28T19:08:22.567Z,14.13
2019-02-28T19:12:29.633Z,24.30
2019-02-28T19:16:36.692Z,12.10
2019-02-28T19:20:43.837Z,11.00
2019-02-28T19:24:53.667Z,12.90
2019-02-28T19:29:00.613Z,16.30
2019-02-28T19:33:09.771Z,12.83
2019-02-28T19:37:16.989Z,11.67
2019-02-28T19:41:24.334Z,15.47
2019-02-28T19:45:32.095Z,13.20
2019-02-28T19:49:40.379Z,13.90
2019-02-28T19:53:47.737Z,15.83
2019-02-28T19:57:54.578Z,16.00
2019-02-28T20:02:01.569Z,15.60
2019-02-28T20:06:08.713Z,17.10
2019-02-28T20:10:17.243Z,16.83
2019-02-28T20:14:24.345Z,18.43
2019-02-28T20:18:31.314Z,18.20
2019-02-28T20:22:38.402Z,21.40
2019-02-28T20:26:45.530Z,17.97
2019-02-28T20:30:55.338Z,18.10
2019-02-28T20:35:02.565Z,19.47
2019-02-28T20:39:13.843Z,16.50
2019-02-28T20:43:21.888Z,18.77
2019-02-28T20:47:35.031Z,21.20
2019-02-28T20:51:42.151Z,21.67
2019-02-28T20:55:49.180Z,22.03
2019-02-28T20:59:59.820Z,19.23
2019-02-28T21:04:06.653Z,18.60
2019-02-28T21:08:21.293Z,18.83
2019-02-28T21:12:28.458Z,19.80
2019-02-28T21:16:35.519Z,22.93
2019-02-28T21:20:47.826Z,23.10
2019-02-28T21:24:54.919Z,20.23
2019-02-28T21:29:01.943Z,21.33
2019-02-28T21:33:09.062Z,24.83
2019-02-28T21:37:16.297Z,24.57
2019-02-28T21:41:23.235Z,24.53
2019-02-28T21:45:30.380Z,22.07
2019-02-28T21:49:37.328Z,21.80
2019-02-28T21:53:47.461Z,25.87
2019-02-28T21:57:58.815Z,22.67
2019-02-28T22:02:06.547Z,21.20
2019-02-28T22:06:13.519Z,23.80
2019-02-28T22:10:22.926Z,25.17
2019-02-28T22:14:33.684Z,20.17
2019-02-28T22:18:40.711Z,19.53
2019-02-28T22:22:47.506Z,26.07
2019-02-28T22:26:56.905Z,23.93
2019-02-28T22:31:31.499Z,21.40
2019-02-28T22:35:41.976Z,27.27
2019-02-28T22:39:48.992Z,24.20
2019-02-28T22:43:55.944Z,17.83
2019-02-28T22:48:05.553Z,22.37
2019-02-28T22:52:13.803Z,21.27
2019-02-28T22:56:20.968Z,22.87
2019-02-28T23:01:04.913Z,20.13
2019-02-28T23:05:12.666Z,20.90
2019-02-28T23:09:21.473Z,18.97
2019-02-28T23:13:28.364Z,20.10
2019-02-28T23:17:35.169Z,18.70
2019-02-28T23:21:42.091Z,21.63
2019-02-28T23:25:48.969Z,21.27
2019-02-28T23:31:07.837Z,19.87
2019-02-28T23:35:24.788Z,16.93
2019-02-28T23:39:33.287Z,20.53
2019-02-28T23:43:40.252Z,19.10
2019-02-28T23:47:47.372Z,16.10
2019-02-28T23:51:54.257Z,18.80
2019-02-28T23:56:01.149Z,18.70
